Weather at IHS Hospital Heliport [CLOSED]

Public forecast

Using degrees Fahrenheit for public forecast. Weather courtesy of forecast.io.

Closest aviation weather report (METAR) to IHS Hospital Heliport

Closest report is Sierra Blanca Regional Airport, 21.4 nm (39.6 km) NNE. Retrieved 2022/06/30 10:35 UTC (21 minutes ago):

KSRR 301035Z AUTO 26003KT 10SM CLR 15/09 A3037 RMK AO2

Closest aviation forecast (TAF) to IHS Hospital Heliport

Closest forecast is Holloman Air Force Base, 25.4 nm (47.0 km) SW. Retrieved 2022/06/30 09:06 UTC (2 hours ago):

TAF KHMN 300900Z 3009/0115 VRB06KT 9999 FEW100 QNH3019INS BECMG 3011/3012 VRB06KT 9999 SKC QNH3010INS BECMG 3018/3019 26012G18KT 9999 FEW100 SCT140 QNH3002INS TS OMTNS BECMG 3021/3022 22012G18KT 9999 SCT100 BKN140 QNH2998INS TS OMTNS BECMG 0102/0103 VRB06KT 9999 SCT120 QNH3001INS BECMG 0110/0111 VRB06KT 9999 SKC QNH3004INS TX34/3022Z TN19/3012Z